sensor_id;sensor_type;location;lat;lon;timestamp;pressure;altitude;pressure_sealevel;temperature;humidity
34031;BME280;20319;28.466;-16.274;2022-12-26T00:00:12;99780.53;;;21.40;65.25
34031;BME280;20319;28.466;-16.274;2022-12-26T00:02:40;99891.41;;;22.02;64.91
34031;BME280;20319;28.466;-16.274;2022-12-26T00:05:06;99888.44;;;22.04;65.58
34031;BME280;20319;28.466;-16.274;2022-12-26T00:07:32;99759.69;;;21.28;65.03
34031;BME280;20319;28.466;-16.274;2022-12-26T00:09:58;99885.25;;;22.07;65.29
34031;BME280;20319;28.466;-16.274;2022-12-26T00:12:23;99832.00;;;21.79;64.96
34031;BME280;20319;28.466;-16.274;2022-12-26T00:14:49;99779.56;;;21.53;65.13
34031;BME280;20319;28.466;-16.274;2022-12-26T00:17:15;99745.06;;;21.40;64.94
34031;BME280;20319;28.466;-16.274;2022-12-26T00:19:41;99700.19;;;21.18;64.43
34031;BME280;20319;28.466;-16.274;2022-12-26T00:22:07;99871.44;;;22.20;64.59
34031;BME280;20319;28.466;-16.274;2022-12-26T00:24:33;99771.53;;;21.58;64.58
34031;BME280;20319;28.466;-16.274;2022-12-26T00:26:59;99654.47;;;20.96;64.66
34031;BME280;20319;28.466;-16.274;2022-12-26T00:29:24;99852.34;;;22.20;64.64
34031;BME280;20319;28.466;-16.274;2022-12-26T00:31:50;99745.69;;;21.60;64.79
34031;BME280;20319;28.466;-16.274;2022-12-26T00:34:16;99726.06;;;21.52;64.78
34031;BME280;20319;28.466;-16.274;2022-12-26T00:36:43;99628.13;;;20.90;64.33
34031;BME280;20319;28.466;-16.274;2022-12-26T00:39:09;99763.28;;;21.64;64.38
34031;BME280;20319;28.466;-16.274;2022-12-26T00:41:34;99706.09;;;21.33;64.57
34031;BME280;20319;28.466;-16.274;2022-12-26T00:44:00;99656.31;;;21.02;64.55
34031;BME280;20319;28.466;-16.274;2022-12-26T00:46:26;99666.09;;;21.09;64.60
34031;BME280;20319;28.466;-16.274;2022-12-26T00:48:52;99829.13;;;22.11;64.86
34031;BME280;20319;28.466;-16.274;2022-12-26T00:51:19;99694.75;;;21.36;64.37
34031;BME280;20319;28.466;-16.274;2022-12-26T00:53:44;99707.63;;;21.47;64.28
34031;BME280;20319;28.466;-16.274;2022-12-26T00:56:10;99816.06;;;22.13;64.29
34031;BME280;20319;28.466;-16.274;2022-12-26T00:58:36;99744.03;;;21.59;63.97
34031;BME280;20319;28.466;-16.274;2022-12-26T01:01:15;99807.44;;;21.98;64.19
34031;BME280;20319;28.466;-16.274;2022-12-26T01:03:42;99611.03;;;20.76;64.05
34031;BME280;20319;28.466;-16.274;2022-12-26T01:06:09;99651.09;;;21.00;64.17
34031;BME280;20319;28.466;-16.274;2022-12-26T01:08:34;99795.59;;;21.85;64.42
34031;BME280;20319;28.466;-16.274;2022-12-26T01:11:20;99703.31;;;21.22;64.00
34031;BME280;20319;28.466;-16.274;2022-12-26T01:14:06;99797.97;;;21.82;63.99
34031;BME280;20319;28.466;-16.274;2022-12-26T01:16:33;99715.13;;;21.34;63.70
34031;BME280;20319;28.466;-16.274;2022-12-26T01:18:58;99694.06;;;21.23;63.71
34031;BME280;20319;28.466;-16.274;2022-12-26T01:21:24;99736.59;;;21.48;63.63
34031;BME280;20319;28.466;-16.274;2022-12-26T01:23:50;99712.19;;;21.35;63.42
34031;BME280;20319;28.466;-16.274;2022-12-26T01:26:15;99710.88;;;21.38;63.69
34031;BME280;20319;28.466;-16.274;2022-12-26T01:28:41;99672.31;;;21.16;63.44
34031;BME280;20319;28.466;-16.274;2022-12-26T01:31:06;99766.94;;;21.76;63.53
34031;BME280;20319;28.466;-16.274;2022-12-26T01:33:32;99716.50;;;21.61;63.46
34031;BME280;20319;28.466;-16.274;2022-12-26T01:35:58;99762.91;;;21.97;62.84
34031;BME280;20319;28.466;-16.274;2022-12-26T01:38:24;99622.91;;;21.06;63.00
34031;BME280;20319;28.466;-16.274;2022-12-26T01:40:50;99709.75;;;21.63;62.66
34031;BME280;20319;28.466;-16.274;2022-12-26T01:43:59;99732.06;;;21.78;62.53
34031;BME280;20319;28.466;-16.274;2022-12-26T01:46:29;99735.47;;;21.74;62.43
34031;BME280;20319;28.466;-16.274;2022-12-26T01:49:00;99726.28;;;21.68;62.40
34031;BME280;20319;28.466;-16.274;2022-12-26T01:51:29;99571.00;;;20.77;62.50
34031;BME280;20319;28.466;-16.274;2022-12-26T01:53:59;99769.69;;;21.94;62.45
34031;BME280;20319;28.466;-16.274;2022-12-26T01:56:36;99689.13;;;21.49;62.53
34031;BME280;20319;28.466;-16.274;2022-12-26T01:59:08;99773.03;;;21.97;61.97
34031;BME280;20319;28.466;-16.274;2022-12-26T02:01:39;99788.56;;;22.14;62.25
34031;BME280;20319;28.466;-16.274;2022-12-26T02:04:08;99796.75;;;22.14;61.94
34031;BME280;20319;28.466;-16.274;2022-12-26T02:06:55;99654.59;;;21.25;61.79
34031;BME280;20319;28.466;-16.274;2022-12-26T02:09:21;99706.03;;;21.40;61.67
34031;BME280;20319;28.466;-16.274;2022-12-26T02:11:57;99734.19;;;21.58;61.04
34031;BME280;20319;28.466;-16.274;2022-12-26T02:14:25;99710.53;;;21.34;60.54
34031;BME280;20319;28.466;-16.274;2022-12-26T02:16:51;99752.56;;;21.45;60.36
34031;BME280;20319;28.466;-16.274;2022-12-26T02:30:47;99654.63;;;19.96;63.03
34031;BME280;20319;28.466;-16.274;2022-12-26T02:33:43;99793.69;;;20.94;63.13
34031;BME280;20319;28.466;-16.274;2022-12-26T02:42:56;99763.53;;;20.89;63.12
34031;BME280;20319;28.466;-16.274;2022-12-26T02:45:24;99757.31;;;20.82;63.13
34031;BME280;20319;28.466;-16.274;2022-12-26T02:48:26;99640.66;;;20.17;63.19
34031;BME280;20319;28.466;-16.274;2022-12-26T02:54:22;99777.09;;;20.71;63.92
34031;BME280;20319;28.466;-16.274;2022-12-26T02:57:16;99686.66;;;20.31;64.23
34031;BME280;20319;28.466;-16.274;2022-12-26T03:00:06;99716.13;;;20.41;63.85
34031;BME280;20319;28.466;-16.274;2022-12-26T03:03:19;99710.97;;;20.26;63.50
34031;BME280;20319;28.466;-16.274;2022-12-26T03:06:12;99750.31;;;20.37;63.88
34031;BME280;20319;28.466;-16.274;2022-12-26T03:09:10;99667.91;;;19.73;62.97
34031;BME280;20319;28.466;-16.274;2022-12-26T03:12:02;99703.63;;;19.89;63.57
34031;BME280;20319;28.466;-16.274;2022-12-26T03:15:16;99578.22;;;19.02;62.95
34031;BME280;20319;28.466;-16.274;2022-12-26T03:17:48;99660.47;;;19.49;63.28
34031;BME280;20319;28.466;-16.274;2022-12-26T03:20:17;99637.13;;;19.28;63.38
34031;BME280;20319;28.466;-16.274;2022-12-26T03:22:54;99775.53;;;20.13;63.95
34031;BME280;20319;28.466;-16.274;2022-12-26T03:25:29;99767.59;;;20.18;63.38
34031;BME280;20319;28.466;-16.274;2022-12-26T03:28:23;99642.28;;;19.49;63.16
34031;BME280;20319;28.466;-16.274;2022-12-26T03:30:49;99650.91;;;19.40;62.72
34031;BME280;20319;28.466;-16.274;2022-12-26T03:33:16;99736.97;;;19.72;63.24
34031;BME280;20319;28.466;-16.274;2022-12-26T03:36:03;99610.47;;;18.92;63.43
34031;BME280;20319;28.466;-16.274;2022-12-26T03:38:35;99747.25;;;19.70;63.88
34031;BME280;20319;28.466;-16.274;2022-12-26T03:41:31;99637.22;;;18.95;63.96
34031;BME280;20319;28.466;-16.274;2022-12-26T03:50:06;99715.88;;;19.67;63.62
34031;BME280;20319;28.466;-16.274;2022-12-26T03:53:14;99662.00;;;19.32;63.68
34031;BME280;20319;28.466;-16.274;2022-12-26T03:56:18;99687.41;;;19.63;63.69
34031;BME280;20319;28.466;-16.274;2022-12-26T03:59:08;99510.22;;;18.71;63.62
34031;BME280;20319;28.466;-16.274;2022-12-26T04:01:54;99599.06;;;19.28;63.19
34031;BME280;20319;28.466;-16.274;2022-12-26T04:04:42;99551.28;;;19.01;63.14
34031;BME280;20319;28.466;-16.274;2022-12-26T04:07:37;99632.31;;;19.37;63.29
34031;BME280;20319;28.466;-16.274;2022-12-26T04:10:31;99714.19;;;19.60;62.82
34031;BME280;20319;28.466;-16.274;2022-12-26T04:13:25;99595.38;;;19.03;63.04
34031;BME280;20319;28.466;-16.274;2022-12-26T04:16:19;99679.06;;;19.58;63.53
34031;BME280;20319;28.466;-16.274;2022-12-26T04:21:57;99589.16;;;18.89;64.38
34031;BME280;20319;28.466;-16.274;2022-12-26T04:25:15;99680.41;;;19.30;64.63
34031;BME280;20319;28.466;-16.274;2022-12-26T04:28:01;99612.56;;;18.84;64.66
34031;BME280;20319;28.466;-16.274;2022-12-26T04:30:51;99622.00;;;18.75;65.51
34031;BME280;20319;28.466;-16.274;2022-12-26T04:33:50;99584.84;;;18.49;65.72
34031;BME280;20319;28.466;-16.274;2022-12-26T04:36:55;99684.41;;;19.14;66.23
34031;BME280;20319;28.466;-16.274;2022-12-26T04:39:44;99721.59;;;19.27;66.14
34031;BME280;20319;28.466;-16.274;2022-12-26T04:42:32;99656.66;;;18.92;66.39
34031;BME280;20319;28.466;-16.274;2022-12-26T04:45:18;99643.50;;;18.76;66.79
34031;BME280;20319;28.466;-16.274;2022-12-26T04:47:45;99609.03;;;18.38;67.23
34031;BME280;20319;28.466;-16.274;2022-12-26T04:50:29;99657.94;;;18.64;67.34
34031;BME280;20319;28.466;-16.274;2022-12-26T04:52:55;99645.00;;;18.46;68.26
34031;BME280;20319;28.466;-16.274;2022-12-26T04:55:25;99538.69;;;17.78;68.74
34031;BME280;20319;28.466;-16.274;2022-12-26T04:57:51;99709.13;;;18.80;68.99
34031;BME280;20319;28.466;-16.274;2022-12-26T05:00:17;99699.72;;;18.89;69.42
34031;BME280;20319;28.466;-16.274;2022-12-26T05:02:43;99667.75;;;18.58;69.79
34031;BME280;20319;28.466;-16.274;2022-12-26T05:05:26;99718.72;;;18.76;70.09
34031;BME280;20319;28.466;-16.274;2022-12-26T05:08:43;99741.28;;;18.63;70.97
34031;BME280;20319;28.466;-16.274;2022-12-26T05:11:28;99678.94;;;17.97;71.89
34031;BME280;20319;28.466;-16.274;2022-12-26T05:13:55;99602.31;;;17.28;73.14
34031;BME280;20319;28.466;-16.274;2022-12-26T05:16:21;99737.03;;;17.68;73.37
34031;BME280;20319;28.466;-16.274;2022-12-26T05:19:09;99694.28;;;17.70;74.10
34031;BME280;20319;28.466;-16.274;2022-12-26T05:21:54;99612.47;;;17.53;73.29
34031;BME280;20319;28.466;-16.274;2022-12-26T05:24:38;99714.28;;;18.36;73.66
34031;BME280;20319;28.466;-16.274;2022-12-26T05:27:24;99629.25;;;18.03;72.88
34031;BME280;20319;28.466;-16.274;2022-12-26T05:30:10;99439.06;;;17.00;72.98
34031;BME280;20319;28.466;-16.274;2022-12-26T05:32:36;99670.88;;;18.55;73.37
34031;BME280;20319;28.466;-16.274;2022-12-26T05:35:20;99582.94;;;18.04;72.94
34031;BME280;20319;28.466;-16.274;2022-12-26T05:37:46;99667.53;;;18.47;73.26
34031;BME280;20319;28.466;-16.274;2022-12-26T05:40:12;99575.00;;;17.96;73.78
34031;BME280;20319;28.466;-16.274;2022-12-26T05:42:37;99487.78;;;17.60;73.94
34031;BME280;20319;28.466;-16.274;2022-12-26T05:45:03;99532.00;;;18.00;73.88
34031;BME280;20319;28.466;-16.274;2022-12-26T05:47:29;99560.81;;;18.20;73.76
34031;BME280;20319;28.466;-16.274;2022-12-26T05:49:55;99544.09;;;18.23;73.96
34031;BME280;20319;28.466;-16.274;2022-12-26T05:52:20;99548.28;;;18.32;73.59
34031;BME280;20319;28.466;-16.274;2022-12-26T05:54:46;99532.41;;;18.36;73.61
34031;BME280;20319;28.466;-16.274;2022-12-26T05:57:11;99543.06;;;18.44;73.04
34031;BME280;20319;28.466;-16.274;2022-12-26T05:59:37;99608.41;;;18.88;73.07
34031;BME280;20319;28.466;-16.274;2022-12-26T06:02:03;99520.13;;;18.40;73.05
34031;BME280;20319;28.466;-16.274;2022-12-26T06:04:28;99522.81;;;18.46;72.59
34031;BME280;20319;28.466;-16.274;2022-12-26T06:06:54;99489.63;;;18.18;72.09
34031;BME280;20319;28.466;-16.274;2022-12-26T06:09:22;99584.56;;;18.77;71.57
34031;BME280;20319;28.466;-16.274;2022-12-26T06:11:48;99668.31;;;19.12;71.03
34031;BME280;20319;28.466;-16.274;2022-12-26T06:14:14;99608.00;;;18.58;70.95
34031;BME280;20319;28.466;-16.274;2022-12-26T06:16:40;99661.47;;;18.77;71.04
34031;BME280;20319;28.466;-16.274;2022-12-26T06:19:06;99632.22;;;18.53;71.03
34031;BME280;20319;28.466;-16.274;2022-12-26T06:21:32;99586.91;;;18.02;70.46
34031;BME280;20319;28.466;-16.274;2022-12-26T06:23:57;99586.69;;;17.90;70.65
34031;BME280;20319;28.466;-16.274;2022-12-26T06:26:23;99438.47;;;17.17;71.15
34031;BME280;20319;28.466;-16.274;2022-12-26T06:28:49;99587.09;;;18.26;71.40
34031;BME280;20319;28.466;-16.274;2022-12-26T06:31:20;99703.66;;;18.99;71.36
34031;BME280;20319;28.466;-16.274;2022-12-26T06:33:48;99473.16;;;17.61;70.83
34031;BME280;20319;28.466;-16.274;2022-12-26T06:36:17;99719.53;;;19.15;70.92
34031;BME280;20319;28.466;-16.274;2022-12-26T06:38:43;99442.53;;;17.60;70.43
34031;BME280;20319;28.466;-16.274;2022-12-26T06:41:11;99699.25;;;19.11;70.68
34031;BME280;20319;28.466;-16.274;2022-12-26T06:43:37;99637.22;;;18.82;70.06
34031;BME280;20319;28.466;-16.274;2022-12-26T06:46:04;99666.03;;;19.09;70.06
34031;BME280;20319;28.466;-16.274;2022-12-26T06:48:31;99576.69;;;18.62;69.79
34031;BME280;20319;28.466;-16.274;2022-12-26T06:50:57;99606.69;;;19.00;69.40
34031;BME280;20319;28.466;-16.274;2022-12-26T06:53:23;99410.56;;;17.95;69.45
34031;BME280;20319;28.466;-16.274;2022-12-26T06:55:50;99722.84;;;19.44;69.00
34031;BME280;20319;28.466;-16.274;2022-12-26T06:58:16;99690.50;;;18.96;69.02
34031;BME280;20319;28.466;-16.274;2022-12-26T07:00:42;99704.50;;;18.93;69.08
34031;BME280;20319;28.466;-16.274;2022-12-26T07:03:08;99691.56;;;18.56;68.63
34031;BME280;20319;28.466;-16.274;2022-12-26T07:05:35;99713.50;;;18.68;68.91
34031;BME280;20319;28.466;-16.274;2022-12-26T07:08:01;99777.66;;;19.01;68.39
34031;BME280;20319;28.466;-16.274;2022-12-26T07:10:27;99718.91;;;18.48;68.07
34031;BME280;20319;28.466;-16.274;2022-12-26T07:12:53;99690.25;;;18.26;68.78
34031;BME280;20319;28.466;-16.274;2022-12-26T07:15:19;99679.56;;;17.99;69.10
34031;BME280;20319;28.466;-16.274;2022-12-26T07:17:44;99642.53;;;17.65;68.80
34031;BME280;20319;28.466;-16.274;2022-12-26T07:20:10;99649.47;;;17.81;69.55
34031;BME280;20319;28.466;-16.274;2022-12-26T07:22:36;99672.06;;;18.07;70.10
34031;BME280;20319;28.466;-16.274;2022-12-26T07:25:02;99692.56;;;18.23;70.15
34031;BME280;20319;28.466;-16.274;2022-12-26T07:27:28;99641.56;;;17.92;70.03
34031;BME280;20319;28.466;-16.274;2022-12-26T07:29:53;99696.31;;;18.28;70.42
34031;BME280;20319;28.466;-16.274;2022-12-26T07:32:19;99567.25;;;17.80;70.16
34031;BME280;20319;28.466;-16.274;2022-12-26T07:34:45;99628.66;;;17.94;69.61
34031;BME280;20319;28.466;-16.274;2022-12-26T07:37:10;99664.28;;;17.78;69.98
34031;BME280;20319;28.466;-16.274;2022-12-26T07:39:36;99753.09;;;18.23;70.61
34031;BME280;20319;28.466;-16.274;2022-12-26T07:42:03;99745.72;;;18.04;70.95
34031;BME280;20319;28.466;-16.274;2022-12-26T07:44:30;99657.69;;;17.53;71.33
34031;BME280;20319;28.466;-16.274;2022-12-26T07:46:57;99762.22;;;18.09;71.50
34031;BME280;20319;28.466;-16.274;2022-12-26T07:49:23;99665.00;;;17.46;71.57
34031;BME280;20319;28.466;-16.274;2022-12-26T07:51:50;99698.19;;;17.61;71.44
34031;BME280;20319;28.466;-16.274;2022-12-26T07:54:16;99799.63;;;18.20;70.30
34031;BME280;20319;28.466;-16.274;2022-12-26T07:56:43;99784.84;;;17.76;70.84
34031;BME280;20319;28.466;-16.274;2022-12-26T07:59:13;99711.28;;;16.83;71.54
34031;BME280;20319;28.466;-16.274;2022-12-26T08:01:40;99761.13;;;16.95;72.81
34031;BME280;20319;28.466;-16.274;2022-12-26T08:04:06;99708.28;;;16.50;73.19
34031;BME280;20319;28.466;-16.274;2022-12-26T08:06:32;99696.41;;;16.30;73.78
34031;BME280;20319;28.466;-16.274;2022-12-26T08:08:57;99827.25;;;17.00;74.48
34031;BME280;20319;28.466;-16.274;2022-12-26T08:11:23;99841.59;;;17.22;74.90
34031;BME280;20319;28.466;-16.274;2022-12-26T08:13:50;99728.94;;;16.79;74.99
34031;BME280;20319;28.466;-16.274;2022-12-26T08:16:16;99773.53;;;17.10;75.04
34031;BME280;20319;28.466;-16.274;2022-12-26T08:18:42;99806.31;;;17.43;74.83
34031;BME280;20319;28.466;-16.274;2022-12-26T08:21:10;99876.13;;;17.96;74.57
34031;BME280;20319;28.466;-16.274;2022-12-26T08:23:36;99852.06;;;17.87;74.63
34031;BME280;20319;28.466;-16.274;2022-12-26T08:26:07;99800.38;;;17.54;74.56
34031;BME280;20319;28.466;-16.274;2022-12-26T08:28:33;99899.84;;;18.22;74.12
34031;BME280;20319;28.466;-16.274;2022-12-26T08:30:59;99827.41;;;17.75;74.17
34031;BME280;20319;28.466;-16.274;2022-12-26T08:33:25;99885.25;;;18.23;73.90
34031;BME280;20319;28.466;-16.274;2022-12-26T08:35:50;99878.13;;;18.22;73.87
34031;BME280;20319;28.466;-16.274;2022-12-26T08:38:16;99834.97;;;17.93;73.81
34031;BME280;20319;28.466;-16.274;2022-12-26T08:40:42;99823.47;;;17.84;73.28
34031;BME280;20319;28.466;-16.274;2022-12-26T08:43:07;99816.56;;;17.75;73.31
34031;BME280;20319;28.466;-16.274;2022-12-26T08:45:33;99768.25;;;17.51;73.18
34031;BME280;20319;28.466;-16.274;2022-12-26T08:47:59;99799.63;;;17.73;73.49
34031;BME280;20319;28.466;-16.274;2022-12-26T08:50:25;99913.34;;;18.43;73.62
34031;BME280;20319;28.466;-16.274;2022-12-26T08:52:51;99718.66;;;17.29;73.42
34031;BME280;20319;28.466;-16.274;2022-12-26T08:55:16;99752.00;;;17.57;73.09
34031;BME280;20319;28.466;-16.274;2022-12-26T08:57:42;99822.00;;;18.22;73.24
34031;BME280;20319;28.466;-16.274;2022-12-26T09:00:08;99832.69;;;18.37;73.46
34031;BME280;20319;28.466;-16.274;2022-12-26T09:02:34;99788.38;;;18.23;73.25
34031;BME280;20319;28.466;-16.274;2022-12-26T09:05:00;99831.75;;;18.64;72.97
34031;BME280;20319;28.466;-16.274;2022-12-26T09:07:26;99829.44;;;18.54;73.06
34031;BME280;20319;28.466;-16.274;2022-12-26T09:09:51;99717.22;;;17.67;72.75
34031;BME280;20319;28.466;-16.274;2022-12-26T09:12:17;99725.44;;;17.46;72.93
34031;BME280;20319;28.466;-16.274;2022-12-26T09:14:43;99792.44;;;17.93;73.15
34031;BME280;20319;28.466;-16.274;2022-12-26T09:17:09;99713.56;;;17.47;73.18
34031;BME280;20319;28.466;-16.274;2022-12-26T09:19:35;99735.63;;;17.85;73.17
34031;BME280;20319;28.466;-16.274;2022-12-26T09:22:01;99739.47;;;18.04;73.48
34031;BME280;20319;28.466;-16.274;2022-12-26T09:24:45;99694.16;;;18.04;73.11
34031;BME280;20319;28.466;-16.274;2022-12-26T09:27:10;99701.50;;;18.17;73.03
34031;BME280;20319;28.466;-16.274;2022-12-26T09:29:36;99725.81;;;18.51;73.17
34031;BME280;20319;28.466;-16.274;2022-12-26T09:32:04;99770.97;;;18.91;73.32
34031;BME280;20319;28.466;-16.274;2022-12-26T09:34:30;99732.94;;;18.84;73.04
34031;BME280;20319;28.466;-16.274;2022-12-26T09:36:56;99713.28;;;18.82;73.01
34031;BME280;20319;28.466;-16.274;2022-12-26T09:39:21;99679.88;;;18.69;72.86
34031;BME280;20319;28.466;-16.274;2022-12-26T09:47:06;99822.78;;;19.68;72.68
34031;BME280;20319;28.466;-16.274;2022-12-26T09:52:48;99794.56;;;19.56;71.57
34031;BME280;20319;28.466;-16.274;2022-12-26T09:57:51;99851.78;;;20.00;71.18
34031;BME280;20319;28.466;-16.274;2022-12-26T10:00:21;99694.03;;;19.17;71.73
34031;BME280;20319;28.466;-16.274;2022-12-26T10:02:53;99784.47;;;19.76;71.47
34031;BME280;20319;28.466;-16.274;2022-12-26T10:05:25;99674.34;;;19.21;70.98
34031;BME280;20319;28.466;-16.274;2022-12-26T10:08:24;99678.75;;;19.29;70.88
34031;BME280;20319;28.466;-16.274;2022-12-26T10:11:01;99785.91;;;19.91;70.40
34031;BME280;20319;28.466;-16.274;2022-12-26T10:13:37;99681.03;;;19.18;69.85
34031;BME280;20319;28.466;-16.274;2022-12-26T10:19:04;99658.03;;;19.28;70.43
34031;BME280;20319;28.466;-16.274;2022-12-26T10:24:36;99832.78;;;20.44;69.93
34031;BME280;20319;28.466;-16.274;2022-12-26T10:27:13;99783.69;;;20.13;70.07
34031;BME280;20319;28.466;-16.274;2022-12-26T10:29:44;99770.31;;;20.18;70.08
34031;BME280;20319;28.466;-16.274;2022-12-26T10:32:14;99725.88;;;19.73;69.94
34031;BME280;20319;28.466;-16.274;2022-12-26T10:34:46;99748.41;;;19.87;69.79
34031;BME280;20319;28.466;-16.274;2022-12-26T10:37:28;99806.69;;;20.30;69.65
34031;BME280;20319;28.466;-16.274;2022-12-26T10:42:42;99855.88;;;20.73;68.78
34031;BME280;20319;28.466;-16.274;2022-12-26T10:47:51;99669.47;;;19.56;68.87
34031;BME280;20319;28.466;-16.274;2022-12-26T10:50:27;99672.59;;;19.59;68.04
34031;BME280;20319;28.466;-16.274;2022-12-26T10:52:55;99685.50;;;19.77;68.33
34031;BME280;20319;28.466;-16.274;2022-12-26T10:55:28;99779.41;;;20.36;68.10
34031;BME280;20319;28.466;-16.274;2022-12-26T10:57:54;99703.19;;;19.92;67.79
34031;BME280;20319;28.466;-16.274;2022-12-26T11:00:25;99829.34;;;20.62;67.70
34031;BME280;20319;28.466;-16.274;2022-12-26T11:05:33;99637.41;;;19.64;66.98
34031;BME280;20319;28.466;-16.274;2022-12-26T11:08:31;99849.88;;;20.95;67.42
34031;BME280;20319;28.466;-16.274;2022-12-26T11:11:05;99842.25;;;21.10;66.70
34031;BME280;20319;28.466;-16.274;2022-12-26T11:13:36;99738.56;;;20.36;66.10
34031;BME280;20319;28.466;-16.274;2022-12-26T11:16:04;99789.06;;;20.70;66.19
34031;BME280;20319;28.466;-16.274;2022-12-26T11:18:38;99768.59;;;20.61;65.81
34031;BME280;20319;28.466;-16.274;2022-12-26T11:23:47;99828.50;;;20.99;65.58
34031;BME280;20319;28.466;-16.274;2022-12-26T11:26:25;99724.31;;;20.34;65.65
34031;BME280;20319;28.466;-16.274;2022-12-26T11:29:13;99777.34;;;20.63;65.30
34031;BME280;20319;28.466;-16.274;2022-12-26T11:31:42;99753.41;;;20.47;64.48
34031;BME280;20319;28.466;-16.274;2022-12-26T11:34:16;99831.88;;;20.94;64.70
34031;BME280;20319;28.466;-16.274;2022-12-26T11:36:47;99841.28;;;20.98;64.48
34031;BME280;20319;28.466;-16.274;2022-12-26T11:39:26;99749.38;;;20.49;64.05
34031;BME280;20319;28.466;-16.274;2022-12-26T11:41:53;99777.16;;;20.65;63.33
34031;BME280;20319;28.466;-16.274;2022-12-26T11:44:53;99833.72;;;21.00;63.43
34031;BME280;20319;28.466;-16.274;2022-12-26T11:47:15;99735.41;;;20.39;63.26
34031;BME280;20319;28.466;-16.274;2022-12-26T12:00:37;99810.94;;;20.88;63.38
34031;BME280;20319;28.466;-16.274;2022-12-26T12:03:09;99732.44;;;20.41;63.54
34031;BME280;20319;28.466;-16.274;2022-12-26T12:08:22;99785.13;;;20.91;63.91
34031;BME280;20319;28.466;-16.274;2022-12-26T12:11:05;99782.38;;;20.97;64.40
34031;BME280;20319;28.466;-16.274;2022-12-26T12:19:23;99776.47;;;21.00;64.21
34031;BME280;20319;28.466;-16.274;2022-12-26T12:27:32;99675.94;;;20.86;64.35
34031;BME280;20319;28.466;-16.274;2022-12-26T12:30:15;99737.56;;;21.36;63.81
34031;BME280;20319;28.466;-16.274;2022-12-26T12:33:07;99736.28;;;21.38;63.76
34031;BME280;20319;28.466;-16.274;2022-12-26T12:38:25;99680.94;;;21.13;63.55
34031;BME280;20319;28.466;-16.274;2022-12-26T12:41:18;99726.72;;;21.47;63.71
34031;BME280;20319;28.466;-16.274;2022-12-26T12:47:05;99726.38;;;21.44;63.52
34031;BME280;20319;28.466;-16.274;2022-12-26T12:52:58;99717.19;;;21.38;63.31
34031;BME280;20319;28.466;-16.274;2022-12-26T13:00:39;99677.75;;;21.16;63.39
34031;BME280;20319;28.466;-16.274;2022-12-26T13:03:32;99689.75;;;21.33;63.64
34031;BME280;20319;28.466;-16.274;2022-12-26T13:06:33;99688.00;;;21.39;63.47
34031;BME280;20319;28.466;-16.274;2022-12-26T13:12:07;99663.69;;;21.37;63.38
34031;BME280;20319;28.466;-16.274;2022-12-26T13:14:45;99610.06;;;21.13;63.14
34031;BME280;20319;28.466;-16.274;2022-12-26T13:17:19;99587.19;;;20.96;62.82
34031;BME280;20319;28.466;-16.274;2022-12-26T13:19:55;99660.50;;;21.40;62.94
34031;BME280;20319;28.466;-16.274;2022-12-26T13:22:26;99628.63;;;21.23;62.94
34031;BME280;20319;28.466;-16.274;2022-12-26T13:25:13;99443.41;;;20.19;62.62
34031;BME280;20319;28.466;-16.274;2022-12-26T13:27:39;99602.25;;;21.17;62.51
34031;BME280;20319;28.466;-16.274;2022-12-26T13:30:12;99648.06;;;21.44;62.46
34031;BME280;20319;28.466;-16.274;2022-12-26T13:32:39;99464.22;;;20.50;62.41
34031;BME280;20319;28.466;-16.274;2022-12-26T13:35:25;99571.44;;;21.16;62.32
34031;BME280;20319;28.466;-16.274;2022-12-26T13:37:54;99378.84;;;20.02;62.50
34031;BME280;20319;28.466;-16.274;2022-12-26T13:40:26;99581.09;;;21.30;62.77
34031;BME280;20319;28.466;-16.274;2022-12-26T13:45:51;99560.50;;;21.34;62.44
34031;BME280;20319;28.466;-16.274;2022-12-26T13:51:02;99592.97;;;21.54;62.74
34031;BME280;20319;28.466;-16.274;2022-12-26T13:53:37;99597.53;;;21.60;62.55
34031;BME280;20319;28.466;-16.274;2022-12-26T14:02:37;99529.16;;;21.25;63.00
34031;BME280;20319;28.466;-16.274;2022-12-26T14:05:31;99506.97;;;21.22;62.79
34031;BME280;20319;28.466;-16.274;2022-12-26T14:14:05;99584.91;;;21.77;63.17
34031;BME280;20319;28.466;-16.274;2022-12-26T14:31:43;99576.34;;;21.55;63.62
34031;BME280;20319;28.466;-16.274;2022-12-26T14:34:24;99580.00;;;21.49;64.04
34031;BME280;20319;28.466;-16.274;2022-12-26T14:37:19;99585.38;;;21.56;64.18
34031;BME280;20319;28.466;-16.274;2022-12-26T14:40:24;99581.50;;;21.63;64.03
34031;BME280;20319;28.466;-16.274;2022-12-26T14:45:49;99586.50;;;21.66;63.97
34031;BME280;20319;28.466;-16.274;2022-12-26T14:51:20;99496.88;;;21.22;64.56
34031;BME280;20319;28.466;-16.274;2022-12-26T14:53:38;99546.13;;;21.57;64.41
34031;BME280;20319;28.466;-16.274;2022-12-26T15:03:43;99564.81;;;21.71;64.98
34031;BME280;20319;28.466;-16.274;2022-12-26T15:09:09;99583.19;;;21.64;65.12
34031;BME280;20319;28.466;-16.274;2022-12-26T15:12:30;99566.59;;;21.48;65.52
34031;BME280;20319;28.466;-16.274;2022-12-26T15:21:07;99608.78;;;21.63;65.87
34031;BME280;20319;28.466;-16.274;2022-12-26T15:30:09;99577.25;;;21.67;66.15
34031;BME280;20319;28.466;-16.274;2022-12-26T15:35:33;99563.09;;;21.59;65.54
34031;BME280;20319;28.466;-16.274;2022-12-26T15:38:17;99581.78;;;21.73;65.49
34031;BME280;20319;28.466;-16.274;2022-12-26T15:41:23;99510.72;;;21.39;65.00
34031;BME280;20319;28.466;-16.274;2022-12-26T15:43:59;99574.94;;;21.82;64.56
34031;BME280;20319;28.466;-16.274;2022-12-26T15:46:37;99495.16;;;21.28;64.50
34031;BME280;20319;28.466;-16.274;2022-12-26T16:02:37;99500.59;;;21.28;64.96
34031;BME280;20319;28.466;-16.274;2022-12-26T16:10:33;99565.22;;;21.57;64.85
34031;BME280;20319;28.466;-16.274;2022-12-26T16:13:15;99597.88;;;21.63;65.02
34031;BME280;20319;28.466;-16.274;2022-12-26T16:15:55;99567.91;;;21.45;64.78